sensor_id;sensor_type;location;lat;lon;timestamp;temperature;humidity
30063;DHT22;16889;67.864;24.990;2023-03-17T00:02:49;-22.70;99.90
30063;DHT22;16889;67.864;24.990;2023-03-17T00:07:35;-22.70;99.90
30063;DHT22;16889;67.864;24.990;2023-03-17T00:12:22;-22.50;99.90
30063;DHT22;16889;67.864;24.990;2023-03-17T00:17:10;-22.50;99.90
30063;DHT22;16889;67.864;24.990;2023-03-17T00:21:58;-22.80;99.90
30063;DHT22;16889;67.864;24.990;2023-03-17T00:26:45;-23.30;99.90
30063;DHT22;16889;67.864;24.990;2023-03-17T00:31:32;-23.40;99.90
30063;DHT22;16889;67.864;24.990;2023-03-17T00:36:27;-23.90;99.90
30063;DHT22;16889;67.864;24.990;2023-03-17T00:41:14;-24.00;99.90
30063;DHT22;16889;67.864;24.990;2023-03-17T00:46:00;-24.10;99.90
30063;DHT22;16889;67.864;24.990;2023-03-17T00:50:49;-23.90;99.90
30063;DHT22;16889;67.864;24.990;2023-03-17T00:55:35;-24.10;99.90
30063;DHT22;16889;67.864;24.990;2023-03-17T01:00:25;-24.50;99.90
30063;DHT22;16889;67.864;24.990;2023-03-17T01:05:12;-24.30;99.90
30063;DHT22;16889;67.864;24.990;2023-03-17T01:09:59;-24.30;99.90
30063;DHT22;16889;67.864;24.990;2023-03-17T01:14:45;-24.40;99.90
30063;DHT22;16889;67.864;24.990;2023-03-17T01:19:32;-24.40;99.90
30063;DHT22;16889;67.864;24.990;2023-03-17T01:24:18;-24.20;99.90
30063;DHT22;16889;67.864;24.990;2023-03-17T01:29:04;-24.30;99.90
30063;DHT22;16889;67.864;24.990;2023-03-17T01:33:52;-24.20;99.90
30063;DHT22;16889;67.864;24.990;2023-03-17T01:38:38;-24.00;99.90
30063;DHT22;16889;67.864;24.990;2023-03-17T01:43:27;-24.10;99.90
30063;DHT22;16889;67.864;24.990;2023-03-17T01:48:14;-24.10;99.90
30063;DHT22;16889;67.864;24.990;2023-03-17T01:53:00;-24.10;99.90
30063;DHT22;16889;67.864;24.990;2023-03-17T01:57:49;-24.40;99.90
30063;DHT22;16889;67.864;24.990;2023-03-17T02:02:41;-24.60;99.90
30063;DHT22;16889;67.864;24.990;2023-03-17T02:07:28;-24.40;99.90
30063;DHT22;16889;67.864;24.990;2023-03-17T02:12:14;-24.50;99.90
30063;DHT22;16889;67.864;24.990;2023-03-17T02:17:00;-25.00;99.90
30063;DHT22;16889;67.864;24.990;2023-03-17T02:21:53;-24.80;99.90
30063;DHT22;16889;67.864;24.990;2023-03-17T02:26:41;-24.70;99.90
30063;DHT22;16889;67.864;24.990;2023-03-17T02:31:28;-25.00;99.90
30063;DHT22;16889;67.864;24.990;2023-03-17T02:36:14;-25.20;99.90
30063;DHT22;16889;67.864;24.990;2023-03-17T02:41:00;-25.40;99.90
30063;DHT22;16889;67.864;24.990;2023-03-17T02:45:46;-25.80;99.90
30063;DHT22;16889;67.864;24.990;2023-03-17T02:50:32;-25.50;99.90
30063;DHT22;16889;67.864;24.990;2023-03-17T02:55:19;-25.40;99.90
30063;DHT22;16889;67.864;24.990;2023-03-17T03:00:05;-25.40;99.90
30063;DHT22;16889;67.864;24.990;2023-03-17T03:04:52;-25.50;99.90
30063;DHT22;16889;67.864;24.990;2023-03-17T03:09:38;-25.60;99.90
30063;DHT22;16889;67.864;24.990;2023-03-17T03:14:24;-25.50;99.90
30063;DHT22;16889;67.864;24.990;2023-03-17T03:19:10;-25.30;99.90
30063;DHT22;16889;67.864;24.990;2023-03-17T03:23:56;-25.30;99.90
30063;DHT22;16889;67.864;24.990;2023-03-17T03:28:42;-25.30;99.90
30063;DHT22;16889;67.864;24.990;2023-03-17T03:33:29;-25.80;99.90
30063;DHT22;16889;67.864;24.990;2023-03-17T03:38:15;-25.90;99.90
30063;DHT22;16889;67.864;24.990;2023-03-17T03:43:01;-25.70;99.90
30063;DHT22;16889;67.864;24.990;2023-03-17T03:47:47;-25.80;99.90
30063;DHT22;16889;67.864;24.990;2023-03-17T03:52:33;-25.90;99.90
30063;DHT22;16889;67.864;24.990;2023-03-17T03:57:19;-26.00;99.90
30063;DHT22;16889;67.864;24.990;2023-03-17T04:02:05;-26.40;99.90
30063;DHT22;16889;67.864;24.990;2023-03-17T04:06:52;-26.40;99.90
30063;DHT22;16889;67.864;24.990;2023-03-17T04:11:38;-26.50;99.90
30063;DHT22;16889;67.864;24.990;2023-03-17T04:16:24;-26.20;99.90
30063;DHT22;16889;67.864;24.990;2023-03-17T04:21:10;-26.10;99.90
30063;DHT22;16889;67.864;24.990;2023-03-17T04:25:57;-26.00;99.90
30063;DHT22;16889;67.864;24.990;2023-03-17T04:30:43;-26.50;99.90
30063;DHT22;16889;67.864;24.990;2023-03-17T04:35:29;-26.50;99.90
30063;DHT22;16889;67.864;24.990;2023-03-17T04:40:16;-26.60;99.90
30063;DHT22;16889;67.864;24.990;2023-03-17T04:45:04;-26.50;99.90
30063;DHT22;16889;67.864;24.990;2023-03-17T04:49:50;-26.70;99.90
30063;DHT22;16889;67.864;24.990;2023-03-17T04:54:36;-27.10;99.90
30063;DHT22;16889;67.864;24.990;2023-03-17T04:59:22;-26.90;99.90
30063;DHT22;16889;67.864;24.990;2023-03-17T05:04:08;-26.50;99.90
30063;DHT22;16889;67.864;24.990;2023-03-17T05:08:54;-26.10;99.90
30063;DHT22;16889;67.864;24.990;2023-03-17T05:13:41;-26.20;99.90
30063;DHT22;16889;67.864;24.990;2023-03-17T05:18:27;-26.00;99.90
30063;DHT22;16889;67.864;24.990;2023-03-17T05:23:14;-25.80;99.90
30063;DHT22;16889;67.864;24.990;2023-03-17T05:27:59;-25.50;99.90
30063;DHT22;16889;67.864;24.990;2023-03-17T05:32:46;-25.30;99.90
30063;DHT22;16889;67.864;24.990;2023-03-17T05:37:31;-25.30;99.90
30063;DHT22;16889;67.864;24.990;2023-03-17T05:42:18;-25.50;99.90
30063;DHT22;16889;67.864;24.990;2023-03-17T05:47:05;-25.20;99.90
30063;DHT22;16889;67.864;24.990;2023-03-17T05:51:53;-25.00;99.90
30063;DHT22;16889;67.864;24.990;2023-03-17T05:56:39;-25.10;99.90
30063;DHT22;16889;67.864;24.990;2023-03-17T06:01:28;-25.20;99.90
30063;DHT22;16889;67.864;24.990;2023-03-17T06:06:14;-25.40;99.90
30063;DHT22;16889;67.864;24.990;2023-03-17T06:11:00;-25.70;99.90
30063;DHT22;16889;67.864;24.990;2023-03-17T06:15:47;-25.30;99.90
30063;DHT22;16889;67.864;24.990;2023-03-17T06:20:34;-24.90;99.90
30063;DHT22;16889;67.864;24.990;2023-03-17T06:25:21;-24.60;99.90
30063;DHT22;16889;67.864;24.990;2023-03-17T06:30:08;-24.20;99.90
30063;DHT22;16889;67.864;24.990;2023-03-17T06:34:54;-24.40;99.90
30063;DHT22;16889;67.864;24.990;2023-03-17T06:39:40;-24.60;99.90
30063;DHT22;16889;67.864;24.990;2023-03-17T06:44:26;-24.30;99.90
30063;DHT22;16889;67.864;24.990;2023-03-17T06:49:12;-23.70;99.90
30063;DHT22;16889;67.864;24.990;2023-03-17T06:53:58;-22.90;99.90
30063;DHT22;16889;67.864;24.990;2023-03-17T06:58:44;-22.10;99.90
30063;DHT22;16889;67.864;24.990;2023-03-17T07:03:31;-21.60;99.90
30063;DHT22;16889;67.864;24.990;2023-03-17T07:08:17;-20.90;99.90
30063;DHT22;16889;67.864;24.990;2023-03-17T07:13:04;-19.90;99.90
30063;DHT22;16889;67.864;24.990;2023-03-17T07:17:52;-17.90;99.90
30063;DHT22;16889;67.864;24.990;2023-03-17T07:22:39;-16.60;99.10
30063;DHT22;16889;67.864;24.990;2023-03-17T07:27:25;-17.00;97.70
30063;DHT22;16889;67.864;24.990;2023-03-17T07:32:11;-17.20;99.00
30063;DHT22;16889;67.864;24.990;2023-03-17T07:36:57;-17.40;99.90
30063;DHT22;16889;67.864;24.990;2023-03-17T07:41:43;-17.20;99.90
30063;DHT22;16889;67.864;24.990;2023-03-17T07:46:31;-17.10;99.90
30063;DHT22;16889;67.864;24.990;2023-03-17T07:51:19;-16.80;99.90
30063;DHT22;16889;67.864;24.990;2023-03-17T07:56:07;-16.60;99.90
30063;DHT22;16889;67.864;24.990;2023-03-17T08:00:53;-17.40;99.90
30063;DHT22;16889;67.864;24.990;2023-03-17T08:05:41;-17.80;99.90
30063;DHT22;16889;67.864;24.990;2023-03-17T08:10:27;-17.10;99.90
30063;DHT22;16889;67.864;24.990;2023-03-17T08:15:13;-14.40;99.90
30063;DHT22;16889;67.864;24.990;2023-03-17T08:19:59;-11.20;93.80
30063;DHT22;16889;67.864;24.990;2023-03-17T08:24:45;-11.40;75.80
30063;DHT22;16889;67.864;24.990;2023-03-17T08:29:31;-11.20;61.40
30063;DHT22;16889;67.864;24.990;2023-03-17T08:34:16;-11.70;68.90
30063;DHT22;16889;67.864;24.990;2023-03-17T08:39:03;-12.40;76.00
30063;DHT22;16889;67.864;24.990;2023-03-17T08:43:50;-13.70;81.10
30063;DHT22;16889;67.864;24.990;2023-03-17T08:48:36;-15.20;92.40
30063;DHT22;16889;67.864;24.990;2023-03-17T08:53:22;-16.20;96.90
30063;DHT22;16889;67.864;24.990;2023-03-17T08:58:08;-16.40;98.40
30063;DHT22;16889;67.864;24.990;2023-03-17T09:02:55;-17.00;99.90
30063;DHT22;16889;67.864;24.990;2023-03-17T09:07:42;-17.10;99.90
30063;DHT22;16889;67.864;24.990;2023-03-17T09:12:28;-16.80;99.90
30063;DHT22;16889;67.864;24.990;2023-03-17T09:17:15;-15.90;99.90
30063;DHT22;16889;67.864;24.990;2023-03-17T09:22:01;-16.20;99.90
30063;DHT22;16889;67.864;24.990;2023-03-17T09:26:47;-15.80;99.90
30063;DHT22;16889;67.864;24.990;2023-03-17T09:31:33;-14.70;99.90
30063;DHT22;16889;67.864;24.990;2023-03-17T09:36:22;-13.30;99.90
30063;DHT22;16889;67.864;24.990;2023-03-17T09:51:37;-11.30;99.90
30063;DHT22;16889;67.864;24.990;2023-03-17T09:56:33;-10.30;99.90
30063;DHT22;16889;67.864;24.990;2023-03-17T10:01:21;-10.10;98.60
30063;DHT22;16889;67.864;24.990;2023-03-17T10:06:33;-10.40;98.80
30063;DHT22;16889;67.864;24.990;2023-03-17T10:11:25;-9.80;99.60
30063;DHT22;16889;67.864;24.990;2023-03-17T10:16:22;-9.30;99.30
30063;DHT22;16889;67.864;24.990;2023-03-17T10:21:14;-10.00;99.90
30063;DHT22;16889;67.864;24.990;2023-03-17T10:31:16;-9.70;98.30
30063;DHT22;16889;67.864;24.990;2023-03-17T10:36:13;-10.40;97.10
30063;DHT22;16889;67.864;24.990;2023-03-17T10:41:04;-10.90;99.90
30063;DHT22;16889;67.864;24.990;2023-03-17T10:45:58;-10.60;99.90
30063;DHT22;16889;67.864;24.990;2023-03-17T10:50:45;-9.60;99.90
30063;DHT22;16889;67.864;24.990;2023-03-17T10:55:38;-9.70;99.90
30063;DHT22;16889;67.864;24.990;2023-03-17T11:00:28;-9.80;99.90
30063;DHT22;16889;67.864;24.990;2023-03-17T11:05:29;-9.50;99.90
30063;DHT22;16889;67.864;24.990;2023-03-17T11:15:06;-8.60;99.90
30063;DHT22;16889;67.864;24.990;2023-03-17T11:25:16;-7.30;98.40
30063;DHT22;16889;67.864;24.990;2023-03-17T11:30:33;-7.60;99.90
30063;DHT22;16889;67.864;24.990;2023-03-17T11:40:32;-8.60;99.90
30063;DHT22;16889;67.864;24.990;2023-03-17T11:45:24;-8.80;99.90
30063;DHT22;16889;67.864;24.990;2023-03-17T12:00:19;-8.70;99.90
30063;DHT22;16889;67.864;24.990;2023-03-17T12:05:09;-9.40;99.90
30063;DHT22;16889;67.864;24.990;2023-03-17T12:10:04;-8.90;99.90
30063;DHT22;16889;67.864;24.990;2023-03-17T12:14:52;-8.60;99.90
30063;DHT22;16889;67.864;24.990;2023-03-17T12:20:09;-7.80;99.90
30063;DHT22;16889;67.864;24.990;2023-03-17T12:25:26;-6.80;99.90
30063;DHT22;16889;67.864;24.990;2023-03-17T12:30:27;-6.60;99.90
30063;DHT22;16889;67.864;24.990;2023-03-17T12:35:34;-6.90;98.10
30063;DHT22;16889;67.864;24.990;2023-03-17T12:45:32;-8.00;99.90
30063;DHT22;16889;67.864;24.990;2023-03-17T12:50:37;-7.90;99.90
30063;DHT22;16889;67.864;24.990;2023-03-17T12:55:30;-8.00;99.90
30063;DHT22;16889;67.864;24.990;2023-03-17T13:00:28;-7.80;99.90
30063;DHT22;16889;67.864;24.990;2023-03-17T13:05:16;-7.50;99.90
30063;DHT22;16889;67.864;24.990;2023-03-17T13:20:19;-6.40;99.90
30063;DHT22;16889;67.864;24.990;2023-03-17T13:25:46;-6.30;99.90
30063;DHT22;16889;67.864;24.990;2023-03-17T13:35:16;-6.10;99.90
30063;DHT22;16889;67.864;24.990;2023-03-17T13:55:01;-5.40;99.90
30063;DHT22;16889;67.864;24.990;2023-03-17T14:04:50;-5.30;99.90
30063;DHT22;16889;67.864;24.990;2023-03-17T14:09:39;-5.30;99.90
30063;DHT22;16889;67.864;24.990;2023-03-17T14:14:40;-5.20;99.90
30063;DHT22;16889;67.864;24.990;2023-03-17T14:19:28;-5.40;99.90
30063;DHT22;16889;67.864;24.990;2023-03-17T14:29:12;-5.40;99.90
30063;DHT22;16889;67.864;24.990;2023-03-17T14:34:00;-5.50;99.90
30063;DHT22;16889;67.864;24.990;2023-03-17T14:38:49;-5.60;99.90
30063;DHT22;16889;67.864;24.990;2023-03-17T14:43:35;-5.60;99.90
30063;DHT22;16889;67.864;24.990;2023-03-17T14:48:26;-5.60;99.90
30063;DHT22;16889;67.864;24.990;2023-03-17T14:53:12;-5.80;99.90
30063;DHT22;16889;67.864;24.990;2023-03-17T14:58:08;-5.90;99.90
30063;DHT22;16889;67.864;24.990;2023-03-17T15:02:56;-5.90;99.90
30063;DHT22;16889;67.864;24.990;2023-03-17T15:07:43;-6.00;99.90
30063;DHT22;16889;67.864;24.990;2023-03-17T15:12:29;-6.10;99.90
30063;DHT22;16889;67.864;24.990;2023-03-17T15:17:20;-6.30;99.90
30063;DHT22;16889;67.864;24.990;2023-03-17T15:27:16;-6.50;99.90
30063;DHT22;16889;67.864;24.990;2023-03-17T15:32:14;-6.60;99.90
30063;DHT22;16889;67.864;24.990;2023-03-17T15:37:00;-6.70;99.90
30063;DHT22;16889;67.864;24.990;2023-03-17T15:41:46;-7.00;99.90
30063;DHT22;16889;67.864;24.990;2023-03-17T15:46:32;-7.10;99.90
30063;DHT22;16889;67.864;24.990;2023-03-17T15:51:18;-7.30;99.90
30063;DHT22;16889;67.864;24.990;2023-03-17T15:56:04;-7.50;99.90
30063;DHT22;16889;67.864;24.990;2023-03-17T16:00:57;-7.70;99.90
30063;DHT22;16889;67.864;24.990;2023-03-17T16:05:44;-7.90;99.90
30063;DHT22;16889;67.864;24.990;2023-03-17T16:10:31;-8.10;99.90
30063;DHT22;16889;67.864;24.990;2023-03-17T16:15:22;-8.40;99.90
30063;DHT22;16889;67.864;24.990;2023-03-17T16:25:29;-9.20;99.90
30063;DHT22;16889;67.864;24.990;2023-03-17T16:30:18;-9.40;99.90
30063;DHT22;16889;67.864;24.990;2023-03-17T16:35:13;-9.70;99.90
30063;DHT22;16889;67.864;24.990;2023-03-17T16:39:59;-9.80;99.90
30063;DHT22;16889;67.864;24.990;2023-03-17T16:44:44;-10.20;99.90
30063;DHT22;16889;67.864;24.990;2023-03-17T16:49:33;-10.60;99.90
30063;DHT22;16889;67.864;24.990;2023-03-17T16:54:19;-10.80;99.90
30063;DHT22;16889;67.864;24.990;2023-03-17T16:59:13;-11.00;99.90
30063;DHT22;16889;67.864;24.990;2023-03-17T17:04:00;-11.40;99.90
30063;DHT22;16889;67.864;24.990;2023-03-17T17:08:47;-11.70;99.90
30063;DHT22;16889;67.864;24.990;2023-03-17T17:13:34;-12.00;99.90
30063;DHT22;16889;67.864;24.990;2023-03-17T17:18:22;-12.30;99.90
30063;DHT22;16889;67.864;24.990;2023-03-17T17:23:14;-12.60;99.90
30063;DHT22;16889;67.864;24.990;2023-03-17T17:28:01;-13.10;99.90
30063;DHT22;16889;67.864;24.990;2023-03-17T17:32:47;-13.40;99.90
30063;DHT22;16889;67.864;24.990;2023-03-17T17:37:33;-13.60;99.90
30063;DHT22;16889;67.864;24.990;2023-03-17T17:42:20;-13.60;99.90
30063;DHT22;16889;67.864;24.990;2023-03-17T17:47:06;-13.70;99.90
30063;DHT22;16889;67.864;24.990;2023-03-17T17:51:52;-13.70;99.90
30063;DHT22;16889;67.864;24.990;2023-03-17T17:56:40;-14.00;99.90
30063;DHT22;16889;67.864;24.990;2023-03-17T18:01:31;-14.00;99.90
30063;DHT22;16889;67.864;24.990;2023-03-17T18:06:17;-14.30;99.90
30063;DHT22;16889;67.864;24.990;2023-03-17T18:11:03;-14.70;99.90
30063;DHT22;16889;67.864;24.990;2023-03-17T18:15:49;-15.00;99.90
30063;DHT22;16889;67.864;24.990;2023-03-17T18:20:37;-15.30;99.90
30063;DHT22;16889;67.864;24.990;2023-03-17T18:25:23;-15.50;99.90
30063;DHT22;16889;67.864;24.990;2023-03-17T18:30:36;-15.90;99.90
30063;DHT22;16889;67.864;24.990;2023-03-17T18:35:22;-16.20;99.90
30063;DHT22;16889;67.864;24.990;2023-03-17T18:40:09;-16.40;99.90
30063;DHT22;16889;67.864;24.990;2023-03-17T18:44:55;-16.80;99.90
30063;DHT22;16889;67.864;24.990;2023-03-17T18:49:41;-17.30;99.90
30063;DHT22;16889;67.864;24.990;2023-03-17T18:54:27;-17.70;99.90
30063;DHT22;16889;67.864;24.990;2023-03-17T18:59:14;-17.70;99.90
30063;DHT22;16889;67.864;24.990;2023-03-17T19:04:00;-17.70;99.90
30063;DHT22;16889;67.864;24.990;2023-03-17T19:08:48;-17.40;99.90
30063;DHT22;16889;67.864;24.990;2023-03-17T19:13:35;-17.30;99.90
30063;DHT22;16889;67.864;24.990;2023-03-17T19:18:21;-17.30;99.90
30063;DHT22;16889;67.864;24.990;2023-03-17T19:23:10;-17.00;99.90
30063;DHT22;16889;67.864;24.990;2023-03-17T19:27:55;-16.70;99.90
30063;DHT22;16889;67.864;24.990;2023-03-17T19:32:43;-16.70;99.90
30063;DHT22;16889;67.864;24.990;2023-03-17T19:37:30;-16.60;99.90
30063;DHT22;16889;67.864;24.990;2023-03-17T19:42:16;-16.80;99.90
30063;DHT22;16889;67.864;24.990;2023-03-17T19:47:02;-17.00;99.90
30063;DHT22;16889;67.864;24.990;2023-03-17T19:51:52;-16.80;99.90
30063;DHT22;16889;67.864;24.990;2023-03-17T19:56:41;-16.50;99.90
30063;DHT22;16889;67.864;24.990;2023-03-17T20:01:27;-16.20;99.90
30063;DHT22;16889;67.864;24.990;2023-03-17T20:06:14;-16.00;99.90
30063;DHT22;16889;67.864;24.990;2023-03-17T20:11:02;-16.00;99.90
30063;DHT22;16889;67.864;24.990;2023-03-17T20:15:50;-15.90;99.90
30063;DHT22;16889;67.864;24.990;2023-03-17T20:20:37;-16.00;99.90
30063;DHT22;16889;67.864;24.990;2023-03-17T20:25:23;-15.90;99.90
30063;DHT22;16889;67.864;24.990;2023-03-17T20:30:10;-15.60;99.90
30063;DHT22;16889;67.864;24.990;2023-03-17T20:34:57;-15.40;99.90
30063;DHT22;16889;67.864;24.990;2023-03-17T20:39:42;-15.30;99.90
30063;DHT22;16889;67.864;24.990;2023-03-17T20:44:29;-15.20;99.90
30063;DHT22;16889;67.864;24.990;2023-03-17T20:49:15;-15.20;99.90
30063;DHT22;16889;67.864;24.990;2023-03-17T20:54:02;-14.90;99.90
30063;DHT22;16889;67.864;24.990;2023-03-17T20:58:50;-14.70;99.90
30063;DHT22;16889;67.864;24.990;2023-03-17T21:03:39;-14.60;99.90
30063;DHT22;16889;67.864;24.990;2023-03-17T21:08:25;-14.30;99.90
30063;DHT22;16889;67.864;24.990;2023-03-17T21:13:11;-14.20;99.90
30063;DHT22;16889;67.864;24.990;2023-03-17T21:17:57;-14.00;99.90
30063;DHT22;16889;67.864;24.990;2023-03-17T21:22:43;-13.90;99.90
30063;DHT22;16889;67.864;24.990;2023-03-17T21:27:30;-13.60;99.90
30063;DHT22;16889;67.864;24.990;2023-03-17T21:32:16;-13.50;99.90
30063;DHT22;16889;67.864;24.990;2023-03-17T21:37:03;-13.60;99.90
30063;DHT22;16889;67.864;24.990;2023-03-17T21:41:50;-13.50;99.90
30063;DHT22;16889;67.864;24.990;2023-03-17T21:46:36;-13.40;99.90
30063;DHT22;16889;67.864;24.990;2023-03-17T21:51:23;-13.30;99.90
30063;DHT22;16889;67.864;24.990;2023-03-17T21:56:09;-13.20;99.90
30063;DHT22;16889;67.864;24.990;2023-03-17T22:00:56;-13.00;99.90
30063;DHT22;16889;67.864;24.990;2023-03-17T22:05:42;-12.90;99.90
30063;DHT22;16889;67.864;24.990;2023-03-17T22:10:28;-12.80;99.90
30063;DHT22;16889;67.864;24.990;2023-03-17T22:15:14;-12.80;99.90
30063;DHT22;16889;67.864;24.990;2023-03-17T22:20:00;-12.60;99.90
30063;DHT22;16889;67.864;24.990;2023-03-17T22:24:48;-12.50;99.90
30063;DHT22;16889;67.864;24.990;2023-03-17T22:29:34;-12.40;99.90
30063;DHT22;16889;67.864;24.990;2023-03-17T22:34:20;-12.40;99.90
30063;DHT22;16889;67.864;24.990;2023-03-17T22:39:06;-12.30;99.90
30063;DHT22;16889;67.864;24.990;2023-03-17T22:43:56;-12.10;99.90
30063;DHT22;16889;67.864;24.990;2023-03-17T22:48:43;-12.10;99.90
30063;DHT22;16889;67.864;24.990;2023-03-17T22:53:28;-12.20;99.90
30063;DHT22;16889;67.864;24.990;2023-03-17T22:58:16;-12.20;99.90
30063;DHT22;16889;67.864;24.990;2023-03-17T23:03:02;-12.20;99.90
30063;DHT22;16889;67.864;24.990;2023-03-17T23:07:48;-12.00;99.90
30063;DHT22;16889;67.864;24.990;2023-03-17T23:12:35;-11.80;99.90
30063;DHT22;16889;67.864;24.990;2023-03-17T23:17:22;-11.80;99.90
30063;DHT22;16889;67.864;24.990;2023-03-17T23:22:08;-12.00;99.90
30063;DHT22;16889;67.864;24.990;2023-03-17T23:26:54;-11.90;99.90
30063;DHT22;16889;67.864;24.990;2023-03-17T23:31:40;-12.00;99.90
30063;DHT22;16889;67.864;24.990;2023-03-17T23:36:27;-12.10;99.90
30063;DHT22;16889;67.864;24.990;2023-03-17T23:41:13;-12.10;99.90
30063;DHT22;16889;67.864;24.990;2023-03-17T23:46:00;-12.20;99.90
30063;DHT22;16889;67.864;24.990;2023-03-17T23:50:49;-12.20;99.90
30063;DHT22;16889;67.864;24.990;2023-03-17T23:55:35;-12.30;99.90
